sensor_id;sensor_type;location;lat;lon;timestamp;pressure;altitude;pressure_sealevel;temperature;humidity
72226;BME280;60130;52.250;5.048;2022-07-29T00:00:00;1019.7;;;16.8;67.2
72226;BME280;60130;52.250;5.048;2022-07-29T00:05:00;1019.6;;;16.9;67.3
72226;BME280;60130;52.250;5.048;2022-07-29T00:10:00;1019.6;;;16.9;67.6
72226;BME280;60130;52.250;5.048;2022-07-29T00:15:00;1019.5;;;16.8;67.1
72226;BME280;60130;52.250;5.048;2022-07-29T00:20:00;1019.5;;;16.8;67.3
72226;BME280;60130;52.250;5.048;2022-07-29T00:25:00;1019.4;;;16.7;67.4
72226;BME280;60130;52.250;5.048;2022-07-29T00:30:00;1019.4;;;16.7;67.5
72226;BME280;60130;52.250;5.048;2022-07-29T00:35:00;1019.3;;;16.6;67.8
72226;BME280;60130;52.250;5.048;2022-07-29T00:40:00;1019.3;;;16.6;67.7
72226;BME280;60130;52.250;5.048;2022-07-29T00:45:00;1019.3;;;16.6;67.9
72226;BME280;60130;52.250;5.048;2022-07-29T00:50:00;1019.2;;;16.6;68.0
72226;BME280;60130;52.250;5.048;2022-07-29T00:55:00;1019.1;;;16.5;68.4
72226;BME280;60130;52.250;5.048;2022-07-29T01:00:00;1019.2;;;16.5;68.5
72226;BME280;60130;52.250;5.048;2022-07-29T01:05:02;1019.1;;;16.5;68.7
72226;BME280;60130;52.250;5.048;2022-07-29T01:10:01;1019.1;;;16.5;68.7
72226;BME280;60130;52.250;5.048;2022-07-29T01:15:01;1019.1;;;16.4;68.7
72226;BME280;60130;52.250;5.048;2022-07-29T01:20:03;1019.1;;;16.4;68.8
72226;BME280;60130;52.250;5.048;2022-07-29T01:25:10;1019.0;;;16.5;69.0
72226;BME280;60130;52.250;5.048;2022-07-29T01:30:01;1019.0;;;16.5;68.9
72226;BME280;60130;52.250;5.048;2022-07-29T01:35:03;1019.0;;;16.5;68.5
72226;BME280;60130;52.250;5.048;2022-07-29T01:40:02;1019.0;;;16.5;68.8
72226;BME280;60130;52.250;5.048;2022-07-29T01:45:03;1019.0;;;16.4;68.9
72226;BME280;60130;52.250;5.048;2022-07-29T01:50:00;1019.0;;;16.4;69.0
72226;BME280;60130;52.250;5.048;2022-07-29T01:55:04;1019.0;;;16.4;68.7
72226;BME280;60130;52.250;5.048;2022-07-29T02:00:00;1019.0;;;16.4;68.9
72226;BME280;60130;52.250;5.048;2022-07-29T02:05:02;1018.9;;;16.4;69.1
72226;BME280;60130;52.250;5.048;2022-07-29T02:10:02;1019.0;;;16.3;68.9
72226;BME280;60130;52.250;5.048;2022-07-29T02:15:01;1018.9;;;16.3;69.2
72226;BME280;60130;52.250;5.048;2022-07-29T02:20:02;1018.9;;;16.3;69.2
72226;BME280;60130;52.250;5.048;2022-07-29T02:25:01;1018.9;;;16.3;69.0
72226;BME280;60130;52.250;5.048;2022-07-29T02:30:02;1018.9;;;16.2;69.1
72226;BME280;60130;52.250;5.048;2022-07-29T02:35:01;1018.8;;;16.2;68.9
72226;BME280;60130;52.250;5.048;2022-07-29T02:40:01;1018.8;;;16.1;69.3
72226;BME280;60130;52.250;5.048;2022-07-29T02:45:00;1018.8;;;16.2;69.2
72226;BME280;60130;52.250;5.048;2022-07-29T02:50:02;1018.8;;;16.2;69.1
72226;BME280;60130;52.250;5.048;2022-07-29T02:55:04;1018.8;;;16.2;69.0
72226;BME280;60130;52.250;5.048;2022-07-29T03:00:04;1018.8;;;16.2;69.4
72226;BME280;60130;52.250;5.048;2022-07-29T03:05:00;1018.8;;;16.2;69.3
72226;BME280;60130;52.250;5.048;2022-07-29T03:10:00;1018.8;;;16.1;69.4
72226;BME280;60130;52.250;5.048;2022-07-29T03:15:00;1018.8;;;16.2;68.9
72226;BME280;60130;52.250;5.048;2022-07-29T03:20:00;1018.7;;;16.2;69.1
72226;BME280;60130;52.250;5.048;2022-07-29T03:25:07;1018.6;;;16.2;68.8
72226;BME280;60130;52.250;5.048;2022-07-29T03:30:00;1018.6;;;16.2;68.8
72226;BME280;60130;52.250;5.048;2022-07-29T03:35:00;1018.6;;;16.1;68.8
72226;BME280;60130;52.250;5.048;2022-07-29T03:40:01;1018.6;;;16.2;69.0
72226;BME280;60130;52.250;5.048;2022-07-29T03:45:02;1018.6;;;16.2;69.0
72226;BME280;60130;52.250;5.048;2022-07-29T03:50:05;1018.5;;;16.2;68.8
72226;BME280;60130;52.250;5.048;2022-07-29T03:55:00;1018.5;;;16.2;68.9
72226;BME280;60130;52.250;5.048;2022-07-29T04:00:01;1018.6;;;16.1;68.5
72226;BME280;60130;52.250;5.048;2022-07-29T04:05:00;1018.6;;;16.2;68.6
72226;BME280;60130;52.250;5.048;2022-07-29T04:10:00;1018.6;;;16.2;68.8
72226;BME280;60130;52.250;5.048;2022-07-29T04:15:00;1018.6;;;16.2;68.8
72226;BME280;60130;52.250;5.048;2022-07-29T04:20:00;1018.6;;;16.1;69.1
72226;BME280;60130;52.250;5.048;2022-07-29T04:25:00;1018.5;;;16.1;69.4
72226;BME280;60130;52.250;5.048;2022-07-29T04:30:00;1018.5;;;16.2;69.6
72226;BME280;60130;52.250;5.048;2022-07-29T04:35:00;1018.5;;;16.2;69.6
72226;BME280;60130;52.250;5.048;2022-07-29T04:40:00;1018.5;;;16.2;69.7
72226;BME280;60130;52.250;5.048;2022-07-29T04:45:00;1018.5;;;16.2;69.4
72226;BME280;60130;52.250;5.048;2022-07-29T04:50:00;1018.6;;;16.3;69.4
72226;BME280;60130;52.250;5.048;2022-07-29T04:55:00;1018.5;;;16.2;69.2
72226;BME280;60130;52.250;5.048;2022-07-29T05:00:00;1018.6;;;16.3;68.9
72226;BME280;60130;52.250;5.048;2022-07-29T05:05:00;1018.6;;;16.3;69.1
72226;BME280;60130;52.250;5.048;2022-07-29T05:10:00;1018.6;;;16.4;69.0
72226;BME280;60130;52.250;5.048;2022-07-29T05:15:00;1018.6;;;16.4;69.4
72226;BME280;60130;52.250;5.048;2022-07-29T05:20:01;1018.6;;;16.5;69.4
72226;BME280;60130;52.250;5.048;2022-07-29T05:25:00;1018.6;;;16.5;68.7
72226;BME280;60130;52.250;5.048;2022-07-29T05:30:00;1018.7;;;16.6;68.6
72226;BME280;60130;52.250;5.048;2022-07-29T05:35:00;1018.6;;;16.5;69.0
72226;BME280;60130;52.250;5.048;2022-07-29T05:40:00;1018.6;;;16.5;69.1
72226;BME280;60130;52.250;5.048;2022-07-29T05:45:00;1018.7;;;16.6;69.0
72226;BME280;60130;52.250;5.048;2022-07-29T05:50:00;1018.7;;;16.6;69.0
72226;BME280;60130;52.250;5.048;2022-07-29T05:55:00;1018.8;;;16.7;69.1
72226;BME280;60130;52.250;5.048;2022-07-29T06:00:00;1018.7;;;16.9;68.7
72226;BME280;60130;52.250;5.048;2022-07-29T06:05:00;1018.7;;;16.9;68.5
72226;BME280;60130;52.250;5.048;2022-07-29T06:10:00;1018.7;;;17.1;68.2
72226;BME280;60130;52.250;5.048;2022-07-29T06:15:00;1018.7;;;17.2;67.8
72226;BME280;60130;52.250;5.048;2022-07-29T06:20:00;1018.7;;;17.3;67.9
72226;BME280;60130;52.250;5.048;2022-07-29T06:25:00;1018.7;;;17.4;66.9
72226;BME280;60130;52.250;5.048;2022-07-29T06:30:00;1018.7;;;17.9;66.4
72226;BME280;60130;52.250;5.048;2022-07-29T06:35:00;1018.8;;;18.4;65.0
72226;BME280;60130;52.250;5.048;2022-07-29T06:40:00;1018.9;;;19.9;60.9
72226;BME280;60130;52.250;5.048;2022-07-29T06:45:00;1018.8;;;19.3;61.1
72226;BME280;60130;52.250;5.048;2022-07-29T06:50:00;1018.9;;;18.7;63.2
72226;BME280;60130;52.250;5.048;2022-07-29T06:55:00;1018.9;;;19.0;62.6
72226;BME280;60130;52.250;5.048;2022-07-29T07:00:00;1019.0;;;19.0;61.8
72226;BME280;60130;52.250;5.048;2022-07-29T07:05:00;1019.1;;;18.7;63.3
72226;BME280;60130;52.250;5.048;2022-07-29T07:10:00;1019.2;;;20.2;60.1
72226;BME280;60130;52.250;5.048;2022-07-29T07:15:00;1019.2;;;21.1;56.3
72226;BME280;60130;52.250;5.048;2022-07-29T07:20:00;1019.2;;;21.9;54.5
72226;BME280;60130;52.250;5.048;2022-07-29T07:25:00;1019.3;;;21.5;54.5
72226;BME280;60130;52.250;5.048;2022-07-29T07:30:00;1019.2;;;21.8;54.2
72226;BME280;60130;52.250;5.048;2022-07-29T07:35:00;1019.1;;;21.8;54.3
72226;BME280;60130;52.250;5.048;2022-07-29T07:40:00;1019.1;;;20.9;56.1
72226;BME280;60130;52.250;5.048;2022-07-29T07:45:00;1019.0;;;20.1;57.8
72226;BME280;60130;52.250;5.048;2022-07-29T07:50:00;1018.9;;;20.5;56.7
72226;BME280;60130;52.250;5.048;2022-07-29T07:55:00;1019.0;;;20.3;57.9
72226;BME280;60130;52.250;5.048;2022-07-29T08:00:00;1019.0;;;21.6;55.0
72226;BME280;60130;52.250;5.048;2022-07-29T08:05:00;1019.0;;;21.8;53.8
72226;BME280;60130;52.250;5.048;2022-07-29T08:10:00;1018.9;;;21.6;54.2
72226;BME280;60130;52.250;5.048;2022-07-29T08:15:00;1019.0;;;21.1;55.9
72226;BME280;60130;52.250;5.048;2022-07-29T08:20:00;1019.0;;;21.1;55.9
72226;BME280;60130;52.250;5.048;2022-07-29T08:25:00;1019.0;;;21.0;55.9
72226;BME280;60130;52.250;5.048;2022-07-29T08:30:00;1019.0;;;20.6;57.5
72226;BME280;60130;52.250;5.048;2022-07-29T08:35:00;1019.0;;;21.1;57.0
72226;BME280;60130;52.250;5.048;2022-07-29T08:40:00;1019.1;;;21.5;55.4
72226;BME280;60130;52.250;5.048;2022-07-29T08:45:00;1019.1;;;21.7;54.6
72226;BME280;60130;52.250;5.048;2022-07-29T08:50:00;1019.2;;;22.1;53.7
72226;BME280;60130;52.250;5.048;2022-07-29T08:55:00;1019.1;;;22.5;54.0
72226;BME280;60130;52.250;5.048;2022-07-29T09:00:03;1019.2;;;22.9;52.2
72226;BME280;60130;52.250;5.048;2022-07-29T09:05:00;1019.1;;;22.8;53.0
72226;BME280;60130;52.250;5.048;2022-07-29T09:10:01;1019.1;;;23.0;52.5
72226;BME280;60130;52.250;5.048;2022-07-29T09:15:00;1019.0;;;23.4;51.5
72226;BME280;60130;52.250;5.048;2022-07-29T09:20:08;1019.0;;;23.0;52.4
72226;BME280;60130;52.250;5.048;2022-07-29T09:25:00;1018.9;;;23.2;51.9
72226;BME280;60130;52.250;5.048;2022-07-29T09:30:02;1018.8;;;23.3;52.9
72226;BME280;60130;52.250;5.048;2022-07-29T09:35:13;1018.9;;;23.6;51.0
72226;BME280;60130;52.250;5.048;2022-07-29T09:40:11;1018.9;;;23.3;51.6
72226;BME280;60130;52.250;5.048;2022-07-29T09:45:00;1018.9;;;23.5;52.2
72226;BME280;60130;52.250;5.048;2022-07-29T09:50:00;1018.9;;;23.4;51.4
72226;BME280;60130;52.250;5.048;2022-07-29T09:55:09;1018.9;;;23.3;50.9
72226;BME280;60130;52.250;5.048;2022-07-29T10:00:02;1018.9;;;23.6;49.0
72226;BME280;60130;52.250;5.048;2022-07-29T10:05:01;1019.0;;;23.8;49.1
72226;BME280;60130;52.250;5.048;2022-07-29T10:10:00;1019.0;;;23.7;49.9
72226;BME280;60130;52.250;5.048;2022-07-29T10:15:01;1019.0;;;23.9;48.7
72226;BME280;60130;52.250;5.048;2022-07-29T10:20:00;1019.0;;;24.0;47.8
72226;BME280;60130;52.250;5.048;2022-07-29T10:25:00;1019.0;;;23.4;49.7
72226;BME280;60130;52.250;5.048;2022-07-29T10:30:00;1019.0;;;23.1;50.0
72226;BME280;60130;52.250;5.048;2022-07-29T10:35:09;1019.0;;;23.7;49.5
72226;BME280;60130;52.250;5.048;2022-07-29T10:40:05;1019.0;;;23.8;49.2
72226;BME280;60130;52.250;5.048;2022-07-29T10:45:01;1019.0;;;24.2;49.8
72226;BME280;60130;52.250;5.048;2022-07-29T10:50:02;1019.0;;;23.5;49.7
72226;BME280;60130;52.250;5.048;2022-07-29T10:55:00;1019.0;;;22.9;51.0
72226;BME280;60130;52.250;5.048;2022-07-29T11:05:00;1019.0;;;23.6;52.2
72226;BME280;60130;52.250;5.048;2022-07-29T11:15:00;1018.9;;;24.0;46.9
72226;BME280;60130;52.250;5.048;2022-07-29T11:25:13;1018.9;;;23.8;48.7
72226;BME280;60130;52.250;5.048;2022-07-29T11:30:00;1018.9;;;23.5;50.2
72226;BME280;60130;52.250;5.048;2022-07-29T11:35:11;1018.9;;;23.9;50.4
72226;BME280;60130;52.250;5.048;2022-07-29T11:40:12;1018.9;;;24.3;49.1
72226;BME280;60130;52.250;5.048;2022-07-29T11:45:01;1018.9;;;24.3;50.4
72226;BME280;60130;52.250;5.048;2022-07-29T11:50:02;1018.9;;;24.2;50.1
72226;BME280;60130;52.250;5.048;2022-07-29T11:55:01;1019.0;;;24.3;50.3
72226;BME280;60130;52.250;5.048;2022-07-29T12:00:00;1019.0;;;24.3;50.4
72226;BME280;60130;52.250;5.048;2022-07-29T12:05:00;1019.0;;;24.0;51.6
72226;BME280;60130;52.250;5.048;2022-07-29T12:10:01;1019.0;;;24.1;51.2
72226;BME280;60130;52.250;5.048;2022-07-29T12:15:10;1019.0;;;24.1;50.5
72226;BME280;60130;52.250;5.048;2022-07-29T12:20:02;1019.0;;;24.2;50.7
72226;BME280;60130;52.250;5.048;2022-07-29T12:25:01;1019.0;;;24.6;49.3
72226;BME280;60130;52.250;5.048;2022-07-29T12:30:01;1019.0;;;24.8;49.3
72226;BME280;60130;52.250;5.048;2022-07-29T12:35:02;1019.0;;;24.8;48.1
72226;BME280;60130;52.250;5.048;2022-07-29T12:40:00;1019.0;;;24.8;49.0
72226;BME280;60130;52.250;5.048;2022-07-29T12:45:01;1019.0;;;24.8;49.1
72226;BME280;60130;52.250;5.048;2022-07-29T12:50:09;1019.0;;;25.2;48.1
72226;BME280;60130;52.250;5.048;2022-07-29T12:55:00;1018.9;;;25.3;47.3
72226;BME280;60130;52.250;5.048;2022-07-29T13:00:03;1018.9;;;25.4;47.2
72226;BME280;60130;52.250;5.048;2022-07-29T13:05:01;1018.9;;;25.3;46.7
72226;BME280;60130;52.250;5.048;2022-07-29T13:10:10;1018.9;;;25.5;46.9
72226;BME280;60130;52.250;5.048;2022-07-29T13:15:00;1018.9;;;25.5;46.0
72226;BME280;60130;52.250;5.048;2022-07-29T13:20:06;1018.9;;;25.4;45.9
72226;BME280;60130;52.250;5.048;2022-07-29T13:25:01;1018.9;;;25.6;44.9
72226;BME280;60130;52.250;5.048;2022-07-29T13:30:01;1018.8;;;25.7;45.4
72226;BME280;60130;52.250;5.048;2022-07-29T13:35:01;1018.8;;;25.8;44.9
72226;BME280;60130;52.250;5.048;2022-07-29T13:40:00;1018.8;;;25.9;46.2
72226;BME280;60130;52.250;5.048;2022-07-29T13:45:00;1018.8;;;25.0;45.7
72226;BME280;60130;52.250;5.048;2022-07-29T13:50:00;1018.8;;;25.3;45.7
72226;BME280;60130;52.250;5.048;2022-07-29T13:55:00;1018.8;;;25.4;45.8
72226;BME280;60130;52.250;5.048;2022-07-29T14:00:00;1018.8;;;26.0;44.8
72226;BME280;60130;52.250;5.048;2022-07-29T14:05:00;1018.8;;;26.1;44.2
72226;BME280;60130;52.250;5.048;2022-07-29T14:10:00;1018.8;;;25.8;44.5
72226;BME280;60130;52.250;5.048;2022-07-29T14:15:00;1018.7;;;25.5;45.3
72226;BME280;60130;52.250;5.048;2022-07-29T14:20:00;1018.8;;;25.3;46.1
72226;BME280;60130;52.250;5.048;2022-07-29T14:25:00;1018.8;;;25.6;46.2
72226;BME280;60130;52.250;5.048;2022-07-29T14:30:00;1018.8;;;26.1;45.0
72226;BME280;60130;52.250;5.048;2022-07-29T14:35:00;1018.7;;;26.3;44.3
72226;BME280;60130;52.250;5.048;2022-07-29T14:40:00;1018.7;;;26.3;44.1
72226;BME280;60130;52.250;5.048;2022-07-29T14:45:00;1018.7;;;26.1;44.6
72226;BME280;60130;52.250;5.048;2022-07-29T14:50:00;1018.7;;;25.6;45.6
72226;BME280;60130;52.250;5.048;2022-07-29T14:55:00;1018.7;;;25.3;46.9
72226;BME280;60130;52.250;5.048;2022-07-29T15:00:00;1018.8;;;25.5;47.1
72226;BME280;60130;52.250;5.048;2022-07-29T15:05:00;1018.8;;;25.6;46.9
72226;BME280;60130;52.250;5.048;2022-07-29T15:10:00;1018.7;;;26.2;45.7
72226;BME280;60130;52.250;5.048;2022-07-29T15:15:00;1018.7;;;25.8;45.9
72226;BME280;60130;52.250;5.048;2022-07-29T15:20:00;1018.7;;;25.4;46.7
72226;BME280;60130;52.250;5.048;2022-07-29T15:25:00;1018.7;;;25.4;47.1
72226;BME280;60130;52.250;5.048;2022-07-29T15:30:00;1018.7;;;25.5;47.6
72226;BME280;60130;52.250;5.048;2022-07-29T15:35:00;1018.6;;;25.8;47.1
72226;BME280;60130;52.250;5.048;2022-07-29T15:40:00;1018.7;;;26.1;45.7
72226;BME280;60130;52.250;5.048;2022-07-29T15:45:00;1018.6;;;26.2;45.3
72226;BME280;60130;52.250;5.048;2022-07-29T15:50:00;1018.6;;;26.3;45.4
72226;BME280;60130;52.250;5.048;2022-07-29T15:55:00;1018.6;;;26.2;46.2
72226;BME280;60130;52.250;5.048;2022-07-29T16:00:00;1018.6;;;25.7;46.9
72226;BME280;60130;52.250;5.048;2022-07-29T16:05:00;1018.6;;;25.5;47.4
72226;BME280;60130;52.250;5.048;2022-07-29T16:10:00;1018.5;;;25.3;47.5
72226;BME280;60130;52.250;5.048;2022-07-29T16:15:00;1018.5;;;25.6;47.4
72226;BME280;60130;52.250;5.048;2022-07-29T16:20:00;1018.5;;;26.1;46.0
72226;BME280;60130;52.250;5.048;2022-07-29T16:25:00;1018.5;;;26.4;45.6
72226;BME280;60130;52.250;5.048;2022-07-29T16:30:00;1018.5;;;26.1;45.8
72226;BME280;60130;52.250;5.048;2022-07-29T16:35:00;1018.6;;;26.2;46.3
72226;BME280;60130;52.250;5.048;2022-07-29T16:40:00;1018.6;;;26.2;45.9
72226;BME280;60130;52.250;5.048;2022-07-29T16:45:00;1018.6;;;26.3;46.4
72226;BME280;60130;52.250;5.048;2022-07-29T16:50:00;1018.6;;;26.6;45.2
72226;BME280;60130;52.250;5.048;2022-07-29T16:55:00;1018.5;;;26.4;45.9
72226;BME280;60130;52.250;5.048;2022-07-29T17:00:00;1018.6;;;26.8;45.5
72226;BME280;60130;52.250;5.048;2022-07-29T17:05:00;1018.6;;;25.6;47.6
72226;BME280;60130;52.250;5.048;2022-07-29T17:10:00;1018.6;;;25.6;47.5
72226;BME280;60130;52.250;5.048;2022-07-29T17:15:00;1018.6;;;25.9;47.9
72226;BME280;60130;52.250;5.048;2022-07-29T17:20:00;1018.6;;;25.7;47.8
72226;BME280;60130;52.250;5.048;2022-07-29T17:25:00;1018.7;;;25.9;47.9
72226;BME280;60130;52.250;5.048;2022-07-29T17:30:00;1018.7;;;25.2;48.6
72226;BME280;60130;52.250;5.048;2022-07-29T17:35:00;1018.7;;;24.4;51.4
72226;BME280;60130;52.250;5.048;2022-07-29T17:40:00;1018.7;;;23.9;52.7
72226;BME280;60130;52.250;5.048;2022-07-29T17:45:00;1018.7;;;24.2;52.0
72226;BME280;60130;52.250;5.048;2022-07-29T17:50:00;1018.8;;;25.6;49.0
72226;BME280;60130;52.250;5.048;2022-07-29T17:55:00;1018.7;;;25.7;48.6
72226;BME280;60130;52.250;5.048;2022-07-29T18:00:00;1018.7;;;24.8;50.8
72226;BME280;60130;52.250;5.048;2022-07-29T18:05:00;1018.8;;;25.3;50.4
72226;BME280;60130;52.250;5.048;2022-07-29T18:10:00;1018.7;;;25.4;49.6
72226;BME280;60130;52.250;5.048;2022-07-29T18:15:00;1018.7;;;25.8;48.9
72226;BME280;60130;52.250;5.048;2022-07-29T18:20:00;1018.7;;;25.2;50.5
72226;BME280;60130;52.250;5.048;2022-07-29T18:25:00;1018.8;;;24.1;53.4
72226;BME280;60130;52.250;5.048;2022-07-29T18:30:00;1018.8;;;23.6;54.8
72226;BME280;60130;52.250;5.048;2022-07-29T18:35:00;1018.8;;;23.3;56.1
72226;BME280;60130;52.250;5.048;2022-07-29T18:40:00;1018.8;;;23.0;57.3
72226;BME280;60130;52.250;5.048;2022-07-29T18:45:00;1018.8;;;22.8;57.9
72226;BME280;60130;52.250;5.048;2022-07-29T18:50:00;1018.9;;;22.9;58.3
72226;BME280;60130;52.250;5.048;2022-07-29T18:55:00;1018.9;;;23.2;57.8
72226;BME280;60130;52.250;5.048;2022-07-29T19:00:00;1018.9;;;23.3;58.0
72226;BME280;60130;52.250;5.048;2022-07-29T19:05:00;1019.0;;;23.1;58.5
72226;BME280;60130;52.250;5.048;2022-07-29T19:10:00;1019.0;;;23.0;59.6
72226;BME280;60130;52.250;5.048;2022-07-29T19:15:00;1019.0;;;22.6;60.9
72226;BME280;60130;52.250;5.048;2022-07-29T19:20:01;1019.1;;;22.2;61.6
72226;BME280;60130;52.250;5.048;2022-07-29T19:25:00;1019.1;;;22.1;61.8
72226;BME280;60130;52.250;5.048;2022-07-29T19:30:00;1019.2;;;21.9;62.2
72226;BME280;60130;52.250;5.048;2022-07-29T19:35:00;1019.3;;;21.6;62.5
72226;BME280;60130;52.250;5.048;2022-07-29T19:40:00;1019.4;;;21.4;63.0
72226;BME280;60130;52.250;5.048;2022-07-29T19:45:00;1019.5;;;21.0;64.3
72226;BME280;60130;52.250;5.048;2022-07-29T19:50:00;1019.6;;;20.9;64.6
72226;BME280;60130;52.250;5.048;2022-07-29T19:55:00;1019.6;;;20.8;65.3
72226;BME280;60130;52.250;5.048;2022-07-29T20:00:00;1019.6;;;20.7;66.0
72226;BME280;60130;52.250;5.048;2022-07-29T20:05:00;1019.7;;;20.5;66.7
72226;BME280;60130;52.250;5.048;2022-07-29T20:10:00;1019.8;;;20.4;66.9
72226;BME280;60130;52.250;5.048;2022-07-29T20:15:00;1019.8;;;20.3;67.6
72226;BME280;60130;52.250;5.048;2022-07-29T20:20:00;1019.8;;;20.2;67.7
72226;BME280;60130;52.250;5.048;2022-07-29T20:25:00;1019.8;;;20.1;68.4
72226;BME280;60130;52.250;5.048;2022-07-29T20:30:00;1019.8;;;19.9;69.2
72226;BME280;60130;52.250;5.048;2022-07-29T20:35:01;1020.0;;;19.6;70.9
72226;BME280;60130;52.250;5.048;2022-07-29T20:40:00;1020.0;;;19.3;72.8
72226;BME280;60130;52.250;5.048;2022-07-29T20:45:00;1020.0;;;19.3;73.2
72226;BME280;60130;52.250;5.048;2022-07-29T20:50:00;1020.0;;;19.2;73.6
72226;BME280;60130;52.250;5.048;2022-07-29T20:55:00;1020.0;;;19.2;73.6
72226;BME280;60130;52.250;5.048;2022-07-29T21:00:00;1020.0;;;19.2;73.6
72226;BME280;60130;52.250;5.048;2022-07-29T21:05:00;1020.0;;;19.1;74.0
72226;BME280;60130;52.250;5.048;2022-07-29T21:10:00;1019.9;;;19.1;74.2
72226;BME280;60130;52.250;5.048;2022-07-29T21:15:00;1020.0;;;19.1;74.1
72226;BME280;60130;52.250;5.048;2022-07-29T21:20:00;1020.0;;;19.0;74.8
72226;BME280;60130;52.250;5.048;2022-07-29T21:25:00;1019.9;;;18.9;75.0
72226;BME280;60130;52.250;5.048;2022-07-29T21:30:00;1019.9;;;18.8;75.4
72226;BME280;60130;52.250;5.048;2022-07-29T21:35:00;1020.0;;;18.9;75.1
72226;BME280;60130;52.250;5.048;2022-07-29T21:40:00;1020.0;;;18.8;75.5
72226;BME280;60130;52.250;5.048;2022-07-29T21:45:00;1019.9;;;18.7;75.5
72226;BME280;60130;52.250;5.048;2022-07-29T21:50:00;1019.9;;;18.6;76.2
72226;BME280;60130;52.250;5.048;2022-07-29T21:55:00;1019.9;;;18.5;76.4
72226;BME280;60130;52.250;5.048;2022-07-29T22:00:00;1020.0;;;18.4;76.8
72226;BME280;60130;52.250;5.048;2022-07-29T22:05:00;1020.0;;;18.3;76.8
72226;BME280;60130;52.250;5.048;2022-07-29T22:10:00;1019.9;;;18.2;76.8
72226;BME280;60130;52.250;5.048;2022-07-29T22:15:00;1019.9;;;18.2;77.4
72226;BME280;60130;52.250;5.048;2022-07-29T22:20:00;1019.8;;;18.1;77.6
72226;BME280;60130;52.250;5.048;2022-07-29T22:25:00;1019.8;;;18.2;77.2
72226;BME280;60130;52.250;5.048;2022-07-29T22:30:00;1019.9;;;18.1;77.1
72226;BME280;60130;52.250;5.048;2022-07-29T22:35:00;1019.9;;;17.9;77.9
72226;BME280;60130;52.250;5.048;2022-07-29T22:40:00;1020.0;;;17.8;78.1
72226;BME280;60130;52.250;5.048;2022-07-29T22:45:00;1020.0;;;17.7;78.6
72226;BME280;60130;52.250;5.048;2022-07-29T22:50:00;1020.1;;;17.6;79.4
72226;BME280;60130;52.250;5.048;2022-07-29T22:55:01;1020.1;;;17.4;79.8
72226;BME280;60130;52.250;5.048;2022-07-29T23:00:00;1020.1;;;17.4;79.9
72226;BME280;60130;52.250;5.048;2022-07-29T23:05:00;1020.1;;;17.3;80.2
72226;BME280;60130;52.250;5.048;2022-07-29T23:10:00;1020.2;;;17.2;80.9
72226;BME280;60130;52.250;5.048;2022-07-29T23:15:00;1020.2;;;17.2;81.1
72226;BME280;60130;52.250;5.048;2022-07-29T23:20:00;1020.1;;;17.1;81.5
72226;BME280;60130;52.250;5.048;2022-07-29T23:25:00;1020.1;;;17.2;80.9
72226;BME280;60130;52.250;5.048;2022-07-29T23:30:00;1020.1;;;17.1;80.9
72226;BME280;60130;52.250;5.048;2022-07-29T23:35:00;1020.1;;;17.0;81.2
72226;BME280;60130;52.250;5.048;2022-07-29T23:40:00;1020.2;;;17.0;81.3
72226;BME280;60130;52.250;5.048;2022-07-29T23:45:00;1020.2;;;16.9;81.5
72226;BME280;60130;52.250;5.048;2022-07-29T23:50:00;1020.1;;;16.9;81.9
72226;BME280;60130;52.250;5.048;2022-07-29T23:55:00;1020.1;;;16.9;81.6
